createdAt,value
2023-02-11T00:01:26.052Z,6.40
2023-02-11T00:03:53.525Z,6.40
2023-02-11T00:06:20.921Z,6.38
2023-02-11T00:08:48.207Z,6.37
2023-02-11T00:11:19.496Z,6.38
2023-02-11T00:13:47.118Z,6.37
2023-02-11T00:16:20.094Z,6.40
2023-02-11T00:18:47.496Z,6.40
2023-02-11T00:21:24.707Z,6.38
2023-02-11T00:23:53.185Z,6.40
2023-02-11T00:26:25.416Z,6.38
2023-02-11T00:28:53.461Z,6.37
2023-02-11T00:31:23.006Z,6.40
2023-02-11T00:33:50.578Z,6.39
2023-02-11T00:36:22.837Z,6.41
2023-02-11T00:38:51.688Z,6.41
2023-02-11T00:41:20.134Z,6.40
2023-02-11T00:43:47.888Z,6.40
2023-02-11T00:46:16.677Z,6.41
2023-02-11T00:48:44.425Z,6.41
2023-02-11T00:51:12.124Z,6.42
2023-02-11T00:53:39.502Z,6.42
2023-02-11T00:56:08.296Z,6.41
2023-02-11T00:58:36.867Z,6.41
2023-02-11T01:01:04.987Z,6.42
2023-02-11T01:03:32.061Z,6.40
2023-02-11T01:05:58.939Z,6.39
2023-02-11T01:08:26.279Z,6.40
2023-02-11T01:11:04.030Z,6.41
2023-02-11T01:13:33.769Z,6.40
2023-02-11T01:16:01.054Z,6.37
2023-02-11T01:18:28.275Z,6.36
2023-02-11T01:20:55.502Z,6.36
2023-02-11T01:23:23.818Z,6.37
2023-02-11T01:25:51.307Z,6.36
2023-02-11T01:28:22.970Z,6.37
2023-02-11T01:33:18.114Z,6.35
2023-02-11T01:35:45.207Z,6.34
2023-02-11T01:38:26.591Z,6.35
2023-02-11T01:41:04.825Z,6.33
2023-02-11T01:43:37.287Z,6.31
2023-02-11T01:46:23.385Z,6.31
2023-02-11T01:49:07.534Z,6.28
2023-02-11T01:51:41.700Z,6.27
2023-02-11T01:54:31.607Z,6.28
2023-02-11T01:57:21.126Z,6.25
2023-02-11T02:00:10.185Z,6.24
2023-02-11T02:03:02.886Z,6.22
2023-02-11T02:05:48.740Z,6.21
2023-02-11T02:08:34.311Z,6.19
2023-02-11T02:11:03.590Z,6.20
2023-02-11T02:13:34.592Z,6.22
2023-02-11T02:16:15.076Z,6.22
2023-02-11T02:19:38.526Z,6.23
2023-02-11T02:22:35.774Z,6.24
2023-02-11T02:25:27.629Z,6.23
2023-02-11T02:28:30.737Z,6.22
2023-02-11T02:31:31.694Z,6.20
2023-02-11T02:34:24.016Z,6.20
2023-02-11T02:38:21.842Z,6.19
2023-02-11T02:41:02.511Z,6.16
2023-02-11T02:43:30.801Z,6.17
2023-02-11T02:46:10.889Z,6.17
2023-02-11T02:48:37.958Z,6.18
2023-02-11T02:51:35.922Z,6.17
2023-02-11T02:54:42.352Z,6.18
2023-02-11T02:57:44.532Z,6.17
2023-02-11T03:00:47.307Z,6.15
2023-02-11T03:03:59.695Z,6.14
2023-02-11T03:06:57.703Z,6.13
2023-02-11T03:09:55.279Z,6.13
2023-02-11T03:12:26.283Z,6.12
2023-02-11T03:14:53.328Z,6.10
2023-02-11T03:17:23.471Z,6.10
2023-02-11T03:19:51.797Z,6.09
2023-02-11T03:22:50.786Z,6.09
2023-02-11T03:25:19.098Z,6.06
2023-02-11T03:28:09.279Z,6.06
2023-02-11T03:31:07.785Z,6.05
2023-02-11T03:33:53.466Z,6.03
2023-02-11T03:36:35.728Z,6.02
2023-02-11T03:39:05.687Z,6.00
2023-02-11T03:41:35.714Z,6.00
2023-02-11T03:44:04.454Z,5.98
2023-02-11T03:46:40.152Z,5.98
2023-02-11T03:49:13.448Z,5.98
2023-02-11T03:51:41.103Z,5.96
2023-02-11T03:54:16.511Z,5.96
2023-02-11T03:56:56.823Z,5.96
2023-02-11T03:59:24.005Z,5.94
2023-02-11T04:01:51.399Z,5.95
2023-02-11T04:04:19.041Z,5.94
2023-02-11T04:06:46.171Z,5.91
2023-02-11T04:09:15.190Z,5.89
2023-02-11T04:11:42.138Z,5.89
2023-02-11T04:14:08.997Z,5.89
2023-02-11T04:16:36.024Z,5.86
2023-02-11T04:19:02.993Z,5.88
2023-02-11T04:21:29.812Z,5.89
2023-02-11T04:23:56.724Z,5.87
2023-02-11T04:26:23.640Z,5.86
2023-02-11T04:28:50.587Z,5.87
2023-02-11T04:31:17.625Z,5.90
2023-02-11T04:33:44.585Z,5.90
2023-02-11T04:36:11.623Z,5.94
2023-02-11T04:38:38.737Z,5.94
2023-02-11T04:41:05.709Z,5.93
2023-02-11T04:43:32.595Z,5.95
2023-02-11T04:45:59.560Z,5.96
2023-02-11T04:48:26.649Z,5.97
2023-02-11T04:50:53.599Z,5.98
2023-02-11T04:53:20.532Z,5.97
2023-02-11T04:55:51.448Z,5.97
2023-02-11T04:58:19.660Z,6.00
2023-02-11T05:00:47.062Z,6.00
2023-02-11T05:03:14.232Z,6.03
2023-02-11T05:05:43.054Z,6.03
2023-02-11T05:08:11.294Z,6.04
2023-02-11T05:10:38.596Z,6.05
2023-02-11T05:13:05.542Z,6.05
2023-02-11T05:15:32.493Z,6.08
2023-02-11T05:17:59.331Z,6.10
2023-02-11T05:20:26.198Z,6.10
2023-02-11T05:22:53.139Z,6.08
2023-02-11T05:25:20.681Z,6.06
2023-02-11T05:27:47.654Z,6.08
2023-02-11T05:30:14.937Z,6.11
2023-02-11T05:32:41.947Z,6.11
2023-02-11T05:35:09.469Z,6.12
2023-02-11T05:37:36.662Z,6.14
2023-02-11T05:40:04.845Z,6.12
2023-02-11T05:42:31.861Z,6.13
2023-02-11T05:44:58.789Z,6.13
2023-02-11T05:47:25.806Z,6.13
2023-02-11T05:49:53.606Z,6.13
2023-02-11T05:52:22.302Z,6.16
2023-02-11T05:54:49.823Z,6.15
2023-02-11T05:57:17.724Z,6.15
2023-02-11T05:59:47.584Z,6.15
2023-02-11T06:02:14.523Z,6.16
2023-02-11T06:04:41.659Z,6.16
2023-02-11T06:07:08.616Z,6.15
2023-02-11T06:09:38.897Z,6.15
2023-02-11T06:12:06.089Z,6.16
2023-02-11T06:14:34.297Z,6.16
2023-02-11T06:17:01.751Z,6.18
2023-02-11T06:19:28.745Z,6.17
2023-02-11T06:21:56.704Z,6.19
2023-02-11T06:24:44.325Z,6.18
2023-02-11T06:27:11.024Z,6.17
2023-02-11T06:29:37.915Z,6.17
2023-02-11T06:32:05.221Z,6.15
2023-02-11T06:34:32.266Z,6.15
2023-02-11T06:36:59.180Z,6.16
2023-02-11T06:39:26.135Z,6.15
2023-02-11T06:41:53.068Z,6.14
2023-02-11T06:44:19.941Z,6.15
2023-02-11T06:46:47.104Z,6.17
2023-02-11T06:49:14.136Z,6.17
2023-02-11T06:51:41.147Z,6.17
2023-02-11T06:54:08.482Z,6.17
2023-02-11T06:56:36.813Z,6.18
2023-02-11T06:59:03.825Z,6.18
2023-02-11T07:01:30.955Z,6.19
2023-02-11T07:03:58.534Z,6.20
2023-02-11T07:06:27.913Z,6.21
2023-02-11T07:08:55.802Z,6.21
2023-02-11T07:11:27.783Z,6.23
2023-02-11T07:14:00.488Z,6.26
2023-02-11T07:16:27.515Z,6.24
2023-02-11T07:18:54.441Z,6.25
2023-02-11T07:21:24.266Z,6.27
2023-02-11T07:23:51.970Z,6.27
2023-02-11T07:26:29.088Z,6.27
2023-02-11T07:28:56.148Z,6.28
2023-02-11T07:31:27.659Z,6.29
2023-02-11T07:34:00.000Z,6.30
2023-02-11T07:36:30.255Z,6.30
2023-02-11T07:38:58.092Z,6.32
2023-02-11T07:41:26.564Z,6.34
2023-02-11T07:43:53.638Z,6.37
2023-02-11T07:46:27.328Z,6.39
2023-02-11T07:48:55.183Z,6.42
2023-02-11T07:51:23.508Z,6.51
2023-02-11T07:53:50.676Z,6.65
2023-02-11T07:56:19.710Z,6.75
2023-02-11T07:58:47.147Z,6.88
2023-02-11T08:01:25.868Z,7.01
2023-02-11T08:03:53.853Z,7.11
2023-02-11T08:06:24.980Z,7.23
2023-02-11T08:08:52.310Z,7.30
2023-02-11T08:11:23.693Z,7.35
2023-02-11T08:13:51.313Z,7.39
2023-02-11T08:16:24.575Z,7.43
2023-02-11T08:18:53.930Z,7.45
2023-02-11T08:21:21.261Z,7.48
2023-02-11T08:23:49.350Z,7.49
2023-02-11T08:26:21.617Z,7.53
2023-02-11T08:28:51.990Z,7.55
2023-02-11T08:31:26.339Z,7.59
2023-02-11T08:33:54.907Z,7.56
2023-02-11T08:36:25.889Z,7.55
2023-02-11T08:39:08.636Z,7.48
2023-02-11T08:41:43.846Z,7.38
2023-02-11T08:44:11.610Z,7.33
2023-02-11T08:46:38.553Z,7.27
2023-02-11T08:49:05.590Z,7.23
2023-02-11T08:51:33.014Z,7.20
2023-02-11T08:54:01.032Z,7.20
2023-02-11T08:56:30.831Z,7.19
2023-02-11T08:58:57.979Z,7.18
2023-02-11T09:01:29.732Z,7.19
2023-02-11T09:03:58.410Z,7.21
2023-02-11T09:06:26.286Z,7.25
2023-02-11T09:08:56.920Z,7.26
2023-02-11T09:11:35.768Z,7.29
2023-02-11T09:14:04.607Z,7.32
2023-02-11T09:16:36.175Z,7.38
2023-02-11T09:19:05.586Z,7.43
2023-02-11T09:21:33.052Z,7.50
2023-02-11T09:24:00.131Z,7.51
2023-02-11T09:26:34.728Z,7.53
2023-02-11T09:29:03.595Z,7.55
2023-02-11T09:31:33.061Z,7.60
2023-02-11T09:34:05.917Z,7.69
2023-02-11T09:36:39.558Z,7.74
2023-02-11T09:39:13.902Z,7.79
2023-02-11T09:42:16.399Z,7.82
2023-02-11T09:44:46.682Z,7.87
2023-02-11T09:47:28.931Z,7.93
2023-02-11T09:50:11.203Z,8.00
2023-02-11T09:53:16.773Z,8.00
2023-02-11T09:55:46.831Z,8.00
2023-02-11T09:58:24.508Z,8.06
2023-02-11T10:01:23.340Z,8.11
2023-02-11T10:04:25.420Z,8.13
2023-02-11T10:06:57.557Z,8.17
2023-02-11T10:09:57.510Z,8.23
2023-02-11T10:13:04.553Z,8.36
2023-02-11T10:16:16.168Z,8.39
2023-02-11T10:19:15.413Z,8.43
2023-02-11T10:22:16.518Z,8.45
2023-02-11T10:24:54.480Z,8.50
2023-02-11T10:27:31.411Z,8.53
2023-02-11T10:30:19.165Z,8.61
2023-02-11T10:33:23.092Z,8.67
2023-02-11T10:35:50.165Z,8.66
2023-02-11T10:38:17.387Z,8.66
2023-02-11T10:40:44.559Z,8.63
2023-02-11T10:43:16.635Z,8.62
2023-02-11T10:45:50.874Z,8.63
2023-02-11T10:48:43.852Z,8.68
2023-02-11T10:51:13.409Z,8.71
2023-02-11T10:53:41.391Z,8.79
2023-02-11T10:56:19.732Z,8.83
2023-02-11T10:58:59.010Z,8.88
2023-02-11T11:01:50.005Z,8.92
2023-02-11T11:04:36.472Z,8.96
2023-02-11T11:07:29.307Z,9.04
2023-02-11T11:10:25.443Z,9.09
2023-02-11T11:12:52.409Z,9.09
2023-02-11T11:15:31.484Z,9.16
2023-02-11T11:18:22.850Z,9.26
2023-02-11T11:21:23.767Z,9.35
2023-02-11T11:24:03.695Z,9.48
2023-02-11T11:26:46.258Z,9.58
2023-02-11T11:29:37.012Z,9.71
2023-02-11T11:32:16.592Z,9.85
2023-02-11T11:34:52.553Z,10.00
2023-02-11T11:37:26.064Z,10.08
2023-02-11T11:40:08.156Z,10.14
2023-02-11T11:42:39.368Z,10.21
2023-02-11T11:45:15.350Z,10.28
2023-02-11T11:48:01.023Z,10.29
2023-02-11T11:50:39.028Z,10.29
2023-02-11T11:53:24.765Z,10.21
2023-02-11T11:56:03.031Z,10.11
2023-02-11T11:58:32.145Z,9.94
2023-02-11T12:01:31.321Z,9.84
2023-02-11T12:04:42.580Z,9.71
2023-02-11T12:07:40.243Z,9.70
2023-02-11T12:10:38.314Z,9.91
2023-02-11T12:13:55.884Z,10.04
2023-02-11T12:16:50.491Z,10.23
2023-02-11T12:19:52.418Z,10.18
2023-02-11T12:22:39.707Z,10.09
2023-02-11T12:25:45.714Z,10.08
2023-02-11T12:28:50.857Z,10.12
2023-02-11T12:31:49.108Z,10.24
2023-02-11T12:34:52.950Z,10.33
2023-02-11T12:37:45.520Z,10.41
2023-02-11T12:40:26.727Z,10.55
2023-02-11T12:43:17.256Z,10.69
2023-02-11T12:46:17.176Z,10.79
2023-02-11T12:49:26.315Z,10.84
2023-02-11T12:52:43.106Z,10.92
2023-02-11T12:55:26.524Z,11.07
2023-02-11T12:57:58.013Z,11.12
2023-02-11T13:00:46.771Z,11.15
2023-02-11T13:03:31.889Z,11.22
2023-02-11T13:06:06.940Z,11.36
2023-02-11T13:08:40.700Z,11.39
2023-02-11T13:11:24.424Z,11.38
2023-02-11T13:14:10.711Z,11.30
2023-02-11T13:16:50.907Z,11.25
2023-02-11T13:19:27.389Z,11.26
2023-02-11T13:22:17.138Z,11.31
2023-02-11T13:24:59.748Z,11.33
2023-02-11T13:27:43.834Z,11.33
2023-02-11T13:30:19.975Z,11.36
2023-02-11T13:32:56.035Z,11.42
2023-02-11T13:35:41.098Z,11.43
2023-02-11T13:38:17.046Z,11.34
2023-02-11T13:40:45.170Z,11.29
2023-02-11T13:43:25.502Z,11.28
2023-02-11T13:46:00.894Z,11.24
2023-02-11T13:48:46.216Z,11.17
2023-02-11T13:51:18.772Z,11.17
2023-02-11T13:53:51.560Z,11.19
2023-02-11T13:56:29.508Z,11.13
2023-02-11T13:59:01.878Z,11.09
2023-02-11T14:02:07.178Z,11.08
2023-02-11T14:04:53.391Z,11.03
2023-02-11T14:07:51.929Z,10.99
2023-02-11T14:10:43.565Z,10.94
2023-02-11T14:13:30.071Z,10.81
2023-02-11T14:16:20.308Z,10.73
2023-02-11T14:18:55.100Z,10.68
2023-02-11T14:21:33.161Z,10.65
2023-02-11T14:24:04.860Z,10.61
2023-02-11T14:27:15.708Z,10.60
2023-02-11T14:29:51.096Z,10.53
2023-02-11T14:32:42.439Z,10.56
2023-02-11T14:35:26.915Z,10.58
2023-02-11T14:38:39.858Z,10.63
2023-02-11T14:41:23.076Z,10.64
2023-02-11T14:43:59.493Z,10.66
2023-02-11T14:46:32.973Z,10.66
2023-02-11T14:49:05.206Z,10.63
2023-02-11T14:51:37.342Z,10.65
2023-02-11T14:54:24.401Z,10.64
2023-02-11T14:57:16.290Z,10.61
2023-02-11T15:00:22.094Z,10.59
2023-02-11T15:02:49.395Z,10.52
2023-02-11T15:05:29.692Z,10.54
2023-02-11T15:08:04.805Z,10.51
2023-02-11T15:10:41.459Z,10.46
2023-02-11T15:13:18.609Z,10.42
2023-02-11T15:15:46.999Z,10.40
2023-02-11T15:18:24.100Z,10.37
2023-02-11T15:20:52.356Z,10.36
2023-02-11T15:23:28.827Z,10.35
2023-02-11T15:25:56.526Z,10.34
2023-02-11T15:28:31.686Z,10.32
2023-02-11T15:31:15.152Z,10.32
2023-02-11T15:33:42.319Z,10.27
2023-02-11T15:36:13.066Z,10.24
2023-02-11T15:38:40.978Z,10.18
2023-02-11T15:41:08.859Z,10.15
2023-02-11T15:43:53.250Z,10.13
2023-02-11T15:46:23.481Z,10.06
2023-02-11T15:48:55.269Z,10.01
2023-02-11T15:51:39.775Z,9.98
2023-02-11T15:54:21.048Z,9.91
2023-02-11T15:56:52.193Z,9.84
2023-02-11T15:59:38.106Z,9.80
2023-02-11T16:02:21.860Z,9.76
2023-02-11T16:04:59.275Z,9.72
2023-02-11T16:07:50.024Z,9.71
2023-02-11T16:10:30.448Z,9.66
2023-02-11T16:13:19.921Z,9.60
2023-02-11T16:15:52.703Z,9.57
2023-02-11T16:18:37.773Z,9.50
2023-02-11T16:21:15.871Z,9.45
2023-02-11T16:23:50.380Z,9.37
2023-02-11T16:26:54.205Z,9.27
2023-02-11T16:29:31.498Z,9.13
2023-02-11T16:32:20.695Z,9.03
2023-02-11T16:34:49.881Z,8.92
2023-02-11T16:37:17.291Z,8.82
2023-02-11T16:39:44.559Z,8.72
2023-02-11T16:42:13.221Z,8.62
2023-02-11T16:44:40.568Z,8.54
2023-02-11T16:47:19.354Z,8.48
2023-02-11T16:49:46.576Z,8.45
2023-02-11T16:52:17.660Z,8.43
2023-02-11T16:54:44.618Z,8.40
2023-02-11T16:57:19.145Z,8.37
2023-02-11T16:59:46.528Z,8.31
2023-02-11T17:02:24.738Z,8.25
2023-02-11T17:04:59.415Z,8.19
2023-02-11T17:07:27.902Z,8.14
2023-02-11T17:09:55.213Z,8.09
2023-02-11T17:12:25.360Z,8.04
2023-02-11T17:14:54.623Z,7.98
2023-02-11T17:17:23.908Z,7.95
2023-02-11T17:19:51.324Z,7.89
2023-02-11T17:22:18.679Z,7.89
2023-02-11T17:24:45.669Z,7.88
2023-02-11T17:27:13.081Z,7.91
2023-02-11T17:29:40.130Z,7.91
2023-02-11T17:32:07.120Z,7.92
2023-02-11T17:34:34.077Z,7.92
2023-02-11T17:37:05.206Z,7.92
2023-02-11T17:39:32.272Z,7.91
2023-02-11T17:41:59.188Z,7.87
2023-02-11T17:44:26.129Z,7.83
2023-02-11T17:46:53.094Z,7.80
2023-02-11T17:49:20.363Z,7.79
2023-02-11T17:51:47.336Z,7.76
2023-02-11T17:54:18.625Z,7.71
2023-02-11T17:56:50.549Z,7.66
2023-02-11T17:59:17.861Z,7.59
2023-02-11T18:01:45.143Z,7.53
2023-02-11T18:04:18.150Z,7.50
2023-02-11T18:06:46.256Z,7.46
2023-02-11T18:09:13.455Z,7.44
2023-02-11T18:11:41.138Z,7.42
2023-02-11T18:14:10.042Z,7.40
2023-02-11T18:16:39.690Z,7.37
2023-02-11T18:19:07.718Z,7.35
2023-02-11T18:21:35.292Z,7.34
2023-02-11T18:24:06.404Z,7.32
2023-02-11T18:26:35.004Z,7.33
2023-02-11T18:29:03.787Z,7.34
2023-02-11T18:31:31.730Z,7.35
2023-02-11T18:33:58.862Z,7.39
2023-02-11T18:36:25.882Z,7.39
2023-02-11T18:38:54.220Z,7.42
2023-02-11T18:41:21.450Z,7.43
2023-02-11T18:43:48.657Z,7.43
2023-02-11T18:46:15.840Z,7.45
2023-02-11T18:48:44.812Z,7.45
2023-02-11T18:51:16.160Z,7.45
2023-02-11T18:53:43.313Z,7.47
2023-02-11T18:56:17.744Z,7.50
2023-02-11T18:58:45.048Z,7.50
2023-02-11T19:01:20.838Z,7.52
2023-02-11T19:03:48.621Z,7.53
2023-02-11T19:06:37.327Z,7.57
2023-02-11T19:09:09.850Z,7.59
2023-02-11T19:11:49.001Z,7.61
2023-02-11T19:14:21.810Z,7.64
2023-02-11T19:16:51.607Z,7.66
2023-02-11T19:19:19.507Z,7.68
2023-02-11T19:21:47.497Z,7.70
2023-02-11T19:24:18.822Z,7.70
2023-02-11T19:26:47.819Z,7.70
2023-02-11T19:29:15.206Z,7.68
2023-02-11T19:31:43.408Z,7.67
2023-02-11T19:34:14.049Z,7.64
2023-02-11T19:36:41.840Z,7.65
2023-02-11T19:39:10.162Z,7.64
2023-02-11T19:41:37.850Z,7.65
2023-02-11T19:44:07.797Z,7.65
2023-02-11T19:46:38.359Z,7.69
2023-02-11T19:49:05.668Z,7.68
2023-02-11T19:51:33.868Z,7.66
2023-02-11T19:54:00.998Z,7.66
2023-02-11T19:56:28.634Z,7.69
2023-02-11T19:58:56.008Z,7.71
2023-02-11T20:01:25.330Z,7.73
2023-02-11T20:03:54.883Z,7.74
2023-02-11T20:06:28.906Z,7.78
2023-02-11T20:08:59.461Z,7.79
2023-02-11T20:11:30.057Z,7.80
2023-02-11T20:13:58.321Z,7.81
2023-02-11T20:16:44.596Z,7.81
2023-02-11T20:19:17.665Z,7.80
2023-02-11T20:21:47.859Z,7.80
2023-02-11T20:24:17.403Z,7.78
2023-02-11T20:26:46.428Z,7.78
2023-02-11T20:29:13.631Z,7.80
2023-02-11T20:31:42.342Z,7.78
2023-02-11T20:34:12.059Z,7.78
2023-02-11T20:36:40.453Z,7.76
2023-02-11T20:39:08.282Z,7.73
2023-02-11T20:41:40.834Z,7.72
2023-02-11T20:44:10.548Z,7.72
2023-02-11T20:46:41.576Z,7.72
2023-02-11T20:49:13.487Z,7.71
2023-02-11T20:51:40.786Z,7.71
2023-02-11T20:54:14.474Z,7.71
2023-02-11T20:56:41.969Z,7.72
2023-02-11T20:59:09.541Z,7.74
2023-02-11T21:01:43.464Z,7.75
2023-02-11T21:04:21.401Z,7.74
2023-02-11T21:06:54.718Z,7.74
2023-02-11T21:09:26.186Z,7.74
2023-02-11T21:11:54.388Z,7.74
2023-02-11T21:14:23.920Z,7.73
2023-02-11T21:16:51.300Z,7.72
2023-02-11T21:19:18.733Z,7.72
2023-02-11T21:21:45.724Z,7.72
2023-02-11T21:24:13.128Z,7.74
2023-02-11T21:26:40.387Z,7.71
2023-02-11T21:29:08.624Z,7.73
2023-02-11T21:31:36.685Z,7.73
2023-02-11T21:34:04.912Z,7.72
2023-02-11T21:36:31.953Z,7.73
2023-02-11T21:39:00.070Z,7.73
2023-02-11T21:41:27.481Z,7.74
2023-02-11T21:43:54.923Z,7.75
2023-02-11T21:46:22.368Z,7.76
2023-02-11T21:48:50.081Z,7.76
2023-02-11T21:51:21.850Z,7.79
2023-02-11T21:53:54.730Z,7.82
2023-02-11T21:56:22.447Z,7.80
2023-02-11T21:58:54.563Z,7.81
2023-02-11T22:01:30.088Z,7.80
2023-02-11T22:03:59.412Z,7.78
2023-02-11T22:06:32.811Z,7.78
2023-02-11T22:09:07.424Z,7.77
2023-02-11T22:11:34.711Z,7.77
2023-02-11T22:14:04.786Z,7.76
2023-02-11T22:16:32.005Z,7.76
2023-02-11T22:19:00.193Z,7.76
2023-02-11T22:21:27.173Z,7.75
2023-02-11T22:23:55.888Z,7.74
2023-02-11T22:26:25.886Z,7.73
2023-02-11T22:28:53.732Z,7.72
2023-02-11T22:31:31.828Z,7.71
2023-02-11T22:34:00.315Z,7.71
2023-02-11T22:36:31.305Z,7.72
2023-02-11T22:39:12.429Z,7.72
2023-02-11T22:41:42.505Z,7.70
2023-02-11T22:44:10.925Z,7.70
2023-02-11T22:46:38.331Z,7.68
2023-02-11T22:49:07.210Z,7.69
2023-02-11T22:51:34.123Z,7.68
2023-02-11T22:54:06.063Z,7.68
2023-02-11T22:56:35.152Z,7.68
2023-02-11T22:59:06.955Z,7.67
2023-02-11T23:01:34.671Z,7.66
2023-02-11T23:04:04.990Z,7.66
2023-02-11T23:06:32.136Z,7.65
2023-02-11T23:08:59.121Z,7.64
2023-02-11T23:11:30.706Z,7.65
2023-02-11T23:13:58.723Z,7.65
2023-02-11T23:16:31.236Z,7.65
2023-02-11T23:19:06.146Z,7.64
2023-02-11T23:21:37.782Z,7.63
2023-02-11T23:24:12.792Z,7.64
2023-02-11T23:26:42.387Z,7.61
2023-02-11T23:29:10.741Z,7.61
2023-02-11T23:31:43.295Z,7.59
2023-02-11T23:34:11.215Z,7.58
2023-02-11T23:36:38.257Z,7.57
2023-02-11T23:39:05.826Z,7.56
2023-02-11T23:41:32.793Z,7.56
2023-02-11T23:43:59.765Z,7.57
2023-02-11T23:46:27.796Z,7.55
2023-02-11T23:48:54.996Z,7.54
2023-02-11T23:51:23.552Z,7.52
2023-02-11T23:53:52.550Z,7.52
2023-02-11T23:56:24.857Z,7.52
2023-02-11T23:58:55.077Z,7.51
